< < Back
Terminal Aerodrome Forecast


Current Version              Previous Versions:   1  2  3  4  5  6  7  8  9  

Terminal Aerodrome Forecast

925
FTUS42 KILM 262320
TAFFLO
TAF
KFLO 262320Z 2700/2724 07007KT P6SM SKC
     FM270800 00000KT 4SM BR SKC
     FM271200 21003KT P6SM FEW250=

Latest METAR

135
SAUS70 KWBC 270000
MTRFLO
METAR KFLO 262353Z 07004KT 10SM CLR 29/18 A3011 RMK AO2 SLP192 T02940183
10322 20294 55001


USA.gov is the U.S. government's official web portal to all federal, state and local government web resources and services.